createdAt,value
2022-10-23T00:01:48.097Z,59.08
2022-10-23T00:04:19.488Z,57.13
2022-10-23T00:06:54.382Z,56.00
2022-10-23T00:09:26.016Z,59.75
2022-10-23T00:11:54.783Z,57.97
2022-10-23T00:14:25.511Z,60.28
2022-10-23T00:19:22.277Z,55.83
2022-10-23T00:21:51.143Z,65.38
2022-10-23T00:24:19.841Z,61.15
2022-10-23T00:26:51.979Z,59.60
2022-10-23T00:29:20.781Z,61.03
2022-10-23T00:31:49.331Z,62.60
2022-10-23T00:34:19.954Z,58.50
2022-10-23T00:36:48.678Z,69.22
2022-10-23T00:39:17.473Z,63.85
2022-10-23T00:41:46.308Z,63.42
2022-10-23T00:44:48.444Z,68.47
2022-10-23T00:47:18.691Z,72.93
2022-10-23T00:49:47.457Z,72.72
2022-10-23T00:52:16.737Z,65.95
2022-10-23T00:54:45.711Z,76.88
2022-10-23T00:57:15.763Z,77.05
2022-10-23T00:59:44.606Z,75.80
2022-10-23T01:02:13.372Z,76.38
2022-10-23T01:04:43.208Z,73.28
2022-10-23T01:07:15.823Z,70.80
2022-10-23T01:09:50.026Z,76.85
2022-10-23T01:12:24.599Z,76.28
2022-10-23T01:15:00.173Z,73.93
2022-10-23T01:17:35.006Z,79.13
2022-10-23T01:20:17.571Z,78.75
2022-10-23T01:23:00.460Z,77.65
2022-10-23T01:25:41.785Z,70.53
2022-10-23T01:28:13.349Z,82.35
2022-10-23T01:30:44.592Z,79.70
2022-10-23T01:33:16.797Z,79.85
2022-10-23T01:35:51.597Z,84.32
2022-10-23T01:38:23.277Z,80.90
2022-10-23T01:40:57.703Z,75.97
2022-10-23T01:43:31.098Z,82.25
2022-10-23T01:46:02.355Z,78.43
2022-10-23T01:48:32.405Z,81.60
2022-10-23T01:51:03.500Z,82.20
2022-10-23T01:53:38.606Z,83.32
2022-10-23T01:56:11.106Z,79.72
2022-10-23T01:58:44.293Z,83.13
2022-10-23T02:01:13.759Z,81.15
2022-10-23T02:03:50.285Z,79.50
2022-10-23T02:06:19.821Z,85.45
2022-10-23T02:08:48.647Z,86.90
2022-10-23T02:11:18.785Z,83.80
2022-10-23T02:13:56.788Z,82.13
2022-10-23T02:16:30.638Z,90.10
2022-10-23T02:19:10.635Z,91.28
2022-10-23T02:21:46.192Z,86.07
2022-10-23T02:24:16.814Z,91.75
2022-10-23T02:26:53.954Z,93.40
2022-10-23T02:29:29.244Z,87.63
2022-10-23T02:32:00.124Z,96.93
2022-10-23T02:34:28.974Z,88.50
2022-10-23T02:36:57.946Z,88.28
2022-10-23T02:39:28.314Z,100.43
2022-10-23T02:42:01.759Z,92.20
2022-10-23T02:44:40.287Z,89.57
2022-10-23T02:47:21.268Z,96.90
2022-10-23T02:49:54.667Z,88.80
2022-10-23T02:52:26.489Z,94.97
2022-10-23T02:55:07.018Z,87.30
2022-10-23T02:57:54.429Z,87.38
2022-10-23T03:00:25.604Z,88.72
2022-10-23T03:02:58.044Z,85.97
2022-10-23T03:05:31.903Z,92.70
2022-10-23T03:08:00.760Z,86.78
2022-10-23T03:10:29.136Z,87.45
2022-10-23T03:12:57.882Z,109.15
2022-10-23T03:15:28.284Z,90.43
2022-10-23T03:17:57.133Z,90.03
2022-10-23T03:20:26.179Z,94.45
2022-10-23T03:22:54.560Z,99.30
2022-10-23T03:25:23.244Z,83.25
2022-10-23T03:27:52.996Z,77.80
2022-10-23T03:30:21.752Z,84.57
2022-10-23T03:32:56.919Z,83.28
2022-10-23T03:35:25.612Z,82.88
2022-10-23T03:37:53.992Z,84.55
2022-10-23T03:40:25.192Z,76.53
2022-10-23T03:42:53.874Z,82.70
2022-10-23T03:45:22.600Z,73.43
2022-10-23T03:47:51.966Z,80.90
2022-10-23T03:50:23.274Z,83.60
2022-10-23T03:52:51.677Z,82.90
2022-10-23T03:55:20.273Z,77.95
2022-10-23T03:57:48.970Z,81.75
2022-10-23T04:00:18.640Z,71.65
2022-10-23T04:02:49.194Z,75.93
2022-10-23T04:05:18.361Z,66.15
2022-10-23T04:07:56.816Z,70.45
2022-10-23T04:12:54.086Z,80.03
2022-10-23T04:15:23.024Z,74.28
2022-10-23T04:17:51.729Z,74.32
2022-10-23T04:20:21.633Z,76.18
2022-10-23T04:22:50.097Z,75.95
2022-10-23T04:25:20.483Z,79.80
2022-10-23T04:27:49.828Z,83.43
2022-10-23T04:30:19.287Z,80.30
2022-10-23T04:32:51.749Z,75.47
2022-10-23T04:35:21.026Z,82.70
2022-10-23T04:37:49.560Z,80.72
2022-10-23T04:40:20.871Z,70.22
2022-10-23T04:42:49.689Z,81.45
2022-10-23T04:45:18.608Z,75.18
2022-10-23T04:47:47.311Z,69.95
2022-10-23T04:50:16.620Z,66.32
2022-10-23T04:53:03.228Z,67.55
2022-10-23T04:56:09.175Z,70.85
2022-10-23T04:58:47.875Z,78.68
2022-10-23T05:01:17.063Z,70.75
2022-10-23T05:03:45.812Z,74.05
2022-10-23T05:06:15.244Z,80.00
2022-10-23T05:08:52.449Z,68.30
2022-10-23T05:11:40.644Z,71.63
2022-10-23T05:14:12.211Z,77.45
2022-10-23T05:16:45.959Z,67.88
2022-10-23T05:19:21.976Z,76.35
2022-10-23T05:21:55.977Z,77.30
2022-10-23T05:24:29.083Z,80.82
2022-10-23T05:27:02.965Z,80.75
2022-10-23T05:29:33.134Z,78.72
2022-10-23T05:32:04.779Z,86.72
2022-10-23T05:34:34.736Z,84.97
2022-10-23T05:37:04.218Z,74.38
2022-10-23T05:39:37.647Z,77.00
2022-10-23T05:42:12.455Z,81.70
2022-10-23T05:44:42.455Z,68.15
2022-10-23T05:47:11.276Z,74.18
2022-10-23T05:50:01.059Z,75.43
2022-10-23T05:52:35.793Z,72.70
2022-10-23T05:55:34.039Z,55.83
2022-10-23T05:58:25.108Z,68.38
2022-10-23T06:01:18.581Z,63.28
2022-10-23T06:04:04.186Z,58.45
2022-10-23T06:07:05.487Z,60.38
2022-10-23T06:09:36.310Z,62.15
2022-10-23T06:12:05.636Z,52.30
2022-10-23T06:14:36.108Z,48.47
2022-10-23T06:17:05.133Z,54.08
2022-10-23T06:19:39.757Z,45.40
2022-10-23T06:22:09.070Z,51.25
2022-10-23T06:25:00.375Z,64.53
2022-10-23T06:27:29.628Z,61.47
2022-10-23T06:29:59.953Z,53.17
2022-10-23T06:32:28.760Z,60.28
2022-10-23T06:35:11.131Z,50.03
2022-10-23T06:37:39.991Z,52.08
2022-10-23T06:40:19.489Z,44.58
2022-10-23T06:43:00.201Z,45.22
2022-10-23T06:45:50.804Z,41.42
2022-10-23T06:48:19.559Z,39.47
2022-10-23T06:51:08.212Z,42.67
2022-10-23T06:53:43.246Z,45.05
2022-10-23T06:56:35.316Z,46.97
2022-10-23T06:59:08.815Z,45.47
2022-10-23T07:01:39.643Z,48.40
2022-10-23T07:04:09.929Z,56.10
2022-10-23T07:06:39.287Z,46.47
2022-10-23T07:09:08.837Z,46.47
2022-10-23T07:12:00.769Z,50.55
2022-10-23T07:14:37.827Z,49.45
2022-10-23T07:17:08.089Z,46.58
2022-10-23T07:19:36.780Z,45.58
2022-10-23T07:22:13.267Z,54.53
2022-10-23T07:24:56.516Z,49.00
2022-10-23T07:27:33.408Z,41.45
2022-10-23T07:30:03.695Z,45.90
2022-10-23T07:32:38.863Z,46.90
2022-10-23T07:35:26.466Z,51.50
2022-10-23T07:38:05.607Z,50.50
2022-10-23T07:40:38.699Z,50.15
2022-10-23T07:43:09.870Z,47.22
2022-10-23T07:45:39.023Z,42.50
2022-10-23T07:48:18.578Z,41.70
2022-10-23T07:51:01.962Z,38.63
2022-10-23T07:53:32.764Z,40.75
2022-10-23T07:56:16.490Z,29.00
2022-10-23T07:59:03.833Z,31.95
2022-10-23T08:01:34.570Z,29.80
2022-10-23T08:04:05.706Z,30.40
2022-10-23T08:06:37.286Z,30.98
2022-10-23T08:09:07.255Z,33.00
2022-10-23T08:11:39.605Z,30.17
2022-10-23T08:16:40.567Z,29.55
2022-10-23T08:19:20.015Z,38.15
2022-10-23T08:21:54.993Z,33.15
2022-10-23T08:24:23.872Z,40.75
2022-10-23T08:26:53.161Z,34.72
2022-10-23T08:29:25.340Z,40.58
2022-10-23T08:34:37.996Z,39.30
2022-10-23T08:37:07.101Z,33.30
2022-10-23T08:39:37.476Z,35.20
2022-10-23T08:42:28.017Z,33.03
2022-10-23T08:45:05.740Z,37.05
2022-10-23T08:47:41.076Z,34.65
2022-10-23T08:50:41.531Z,36.17
2022-10-23T08:53:17.533Z,32.92
2022-10-23T08:55:50.199Z,36.17
2022-10-23T08:58:21.997Z,33.65
2022-10-23T09:00:51.640Z,39.08
2022-10-23T09:03:20.474Z,34.88
2022-10-23T09:06:01.947Z,36.88
2022-10-23T09:08:41.878Z,32.83
2022-10-23T09:11:14.098Z,35.05
2022-10-23T09:14:21.819Z,30.95
2022-10-23T09:17:00.946Z,37.17
2022-10-23T09:19:31.512Z,31.65
2022-10-23T09:24:31.912Z,32.50
2022-10-23T09:27:01.874Z,28.17
2022-10-23T09:29:33.223Z,36.50
2022-10-23T09:32:03.747Z,29.73
2022-10-23T09:34:33.827Z,31.05
2022-10-23T09:39:35.615Z,26.73
2022-10-23T09:44:50.791Z,27.17
2022-10-23T09:47:22.828Z,27.75
2022-10-23T09:49:52.821Z,31.25
2022-10-23T09:52:27.316Z,28.13
2022-10-23T09:54:58.836Z,26.60
2022-10-23T09:57:31.441Z,23.98
2022-10-23T10:00:02.769Z,28.65
2022-10-23T10:02:40.479Z,33.88
2022-10-23T10:05:35.831Z,29.63
2022-10-23T10:09:21.644Z,33.95
2022-10-23T10:11:58.524Z,24.42
2022-10-23T10:14:43.675Z,28.30
2022-10-23T10:17:19.566Z,24.55
2022-10-23T10:20:07.110Z,33.17
2022-10-23T10:22:41.457Z,20.35
2022-10-23T10:25:15.197Z,21.17
2022-10-23T10:27:56.683Z,26.17
2022-10-23T10:30:26.044Z,23.40
2022-10-23T10:32:59.954Z,17.90
2022-10-23T10:35:37.345Z,18.90
2022-10-23T10:38:33.243Z,21.85
2022-10-23T10:41:21.664Z,26.35
2022-10-23T10:44:00.141Z,24.08
2022-10-23T10:46:34.986Z,16.58
2022-10-23T10:49:12.604Z,23.17
2022-10-23T10:52:06.165Z,19.20
2022-10-23T10:54:44.944Z,19.27
2022-10-23T10:57:18.753Z,17.33
2022-10-23T10:59:52.908Z,16.13
2022-10-23T11:02:28.223Z,20.88
2022-10-23T11:05:02.442Z,27.73
2022-10-23T11:07:35.657Z,14.55
2022-10-23T11:10:08.209Z,18.55
2022-10-23T11:12:36.991Z,20.48
2022-10-23T11:15:14.095Z,21.05
2022-10-23T11:17:47.836Z,21.15
2022-10-23T11:20:40.167Z,16.27
2022-10-23T11:23:47.243Z,20.83
2022-10-23T11:26:25.818Z,20.83
2022-10-23T11:29:28.089Z,17.00
2022-10-23T11:32:08.878Z,18.90
2022-10-23T11:34:49.281Z,21.73
2022-10-23T11:40:01.201Z,18.10
2022-10-23T11:42:35.099Z,17.63
2022-10-23T11:45:26.578Z,15.05
2022-10-23T11:48:00.815Z,16.48
2022-10-23T11:50:32.335Z,21.27
2022-10-23T11:53:14.367Z,18.63
2022-10-23T11:55:59.240Z,16.77
2022-10-23T11:58:32.318Z,18.75
2022-10-23T12:01:05.301Z,27.42
2022-10-23T12:03:43.113Z,18.63
2022-10-23T12:06:20.515Z,19.73
2022-10-23T12:08:52.487Z,17.35
2022-10-23T12:11:28.771Z,15.95
2022-10-23T12:13:57.483Z,21.23
2022-10-23T12:16:36.751Z,21.15
2022-10-23T12:19:20.330Z,24.50
2022-10-23T12:21:49.244Z,18.23
2022-10-23T12:24:39.799Z,16.10
2022-10-23T12:27:18.174Z,20.75
2022-10-23T12:30:02.837Z,20.17
2022-10-23T12:32:47.536Z,17.92
2022-10-23T12:35:47.731Z,17.55
2022-10-23T12:38:18.251Z,19.00
2022-10-23T12:40:47.303Z,27.65
2022-10-23T12:43:27.304Z,19.20
2022-10-23T12:45:56.658Z,20.38
2022-10-23T12:48:27.047Z,20.35
2022-10-23T12:50:57.855Z,18.67
2022-10-23T12:53:26.727Z,20.45
2022-10-23T12:56:01.667Z,18.30
2022-10-23T12:58:32.200Z,19.33
2022-10-23T13:01:06.726Z,20.35
2022-10-23T13:03:38.201Z,18.00
2022-10-23T13:06:11.605Z,19.02
2022-10-23T13:08:42.747Z,25.70
2022-10-23T13:11:31.295Z,24.85
2022-10-23T13:14:12.720Z,20.73
2022-10-23T13:16:41.077Z,27.73
2022-10-23T13:19:24.431Z,23.83
2022-10-23T13:21:54.831Z,24.13
2022-10-23T13:26:52.154Z,21.08
2022-10-23T13:29:23.169Z,20.73
2022-10-23T13:31:52.204Z,24.92
2022-10-23T13:34:27.278Z,24.63
2022-10-23T13:37:00.911Z,24.10
2022-10-23T13:39:31.745Z,26.55
2022-10-23T13:42:12.952Z,27.52
2022-10-23T13:44:42.482Z,27.15
2022-10-23T13:47:13.463Z,23.30
2022-10-23T13:49:41.839Z,24.63
2022-10-23T13:52:14.836Z,28.65
2022-10-23T13:54:43.781Z,26.02
2022-10-23T13:57:15.747Z,26.13
2022-10-23T13:59:44.988Z,23.40
2022-10-23T14:02:20.659Z,31.40
2022-10-23T14:04:49.801Z,25.00
2022-10-23T14:07:22.230Z,26.00
2022-10-23T14:09:51.212Z,26.02
2022-10-23T14:12:19.955Z,27.67
2022-10-23T14:14:52.390Z,26.95
2022-10-23T14:17:22.950Z,27.38
2022-10-23T14:19:51.386Z,28.08
2022-10-23T14:22:21.869Z,31.95
2022-10-23T14:24:51.106Z,29.83
2022-10-23T14:27:19.835Z,22.52
2022-10-23T14:29:48.529Z,24.40
2022-10-23T14:32:17.269Z,23.45
2022-10-23T14:34:46.351Z,27.00
2022-10-23T14:37:15.098Z,23.50
2022-10-23T14:39:49.783Z,20.98
2022-10-23T14:42:19.478Z,17.58
2022-10-23T14:44:50.009Z,23.33
2022-10-23T14:47:19.963Z,22.90
2022-10-23T14:49:50.659Z,17.07
2022-10-23T14:52:19.555Z,18.98
2022-10-23T14:54:49.614Z,23.30
2022-10-23T14:57:21.108Z,18.48
2022-10-23T14:59:50.345Z,21.20
2022-10-23T15:02:19.145Z,19.13
2022-10-23T15:04:47.482Z,23.52
2022-10-23T15:07:16.143Z,26.67
2022-10-23T15:09:44.808Z,21.60
2022-10-23T15:12:14.944Z,22.73
2022-10-23T15:14:43.624Z,23.55
2022-10-23T15:17:15.741Z,20.80
2022-10-23T15:19:44.222Z,28.23
2022-10-23T15:22:12.942Z,24.85
2022-10-23T15:24:41.833Z,21.08
2022-10-23T15:29:45.652Z,23.77
2022-10-23T15:32:14.511Z,27.45
2022-10-23T15:34:42.997Z,27.88
2022-10-23T15:37:12.414Z,25.20
2022-10-23T15:39:41.325Z,24.92
2022-10-23T15:42:11.508Z,28.40
2022-10-23T15:44:41.105Z,28.92
2022-10-23T15:47:11.295Z,25.83
2022-10-23T15:49:40.039Z,28.98
2022-10-23T15:54:39.421Z,27.92
2022-10-23T15:57:08.129Z,30.25
2022-10-23T15:59:37.016Z,27.92
2022-10-23T16:02:06.080Z,26.55
2022-10-23T16:04:36.613Z,24.38
2022-10-23T16:07:05.744Z,29.10
2022-10-23T16:09:34.522Z,24.83
2022-10-23T16:12:03.440Z,24.65
2022-10-23T16:14:32.153Z,30.58
2022-10-23T16:17:00.847Z,26.98
2022-10-23T16:19:29.171Z,26.42
2022-10-23T16:21:59.250Z,29.48
2022-10-23T16:24:27.985Z,25.80
2022-10-23T16:26:57.674Z,30.25
2022-10-23T16:29:27.324Z,28.45
2022-10-23T16:31:55.843Z,25.23
2022-10-23T16:34:24.890Z,27.45
2022-10-23T16:36:54.197Z,29.23
2022-10-23T16:39:48.974Z,31.38
2022-10-23T16:42:37.246Z,29.60
2022-10-23T16:45:12.520Z,28.75
2022-10-23T16:47:42.492Z,32.97
2022-10-23T16:50:11.449Z,30.98
2022-10-23T16:52:39.933Z,32.38
2022-10-23T16:55:11.028Z,32.97
2022-10-23T16:57:39.691Z,31.23
2022-10-23T17:00:10.735Z,32.38
2022-10-23T17:02:39.504Z,34.55
2022-10-23T17:05:08.777Z,39.08
2022-10-23T17:07:38.426Z,32.92
2022-10-23T17:10:08.019Z,38.85
2022-10-23T17:12:38.785Z,37.08
2022-10-23T17:15:08.801Z,35.05
2022-10-23T17:17:37.539Z,40.60
2022-10-23T17:20:06.986Z,35.17
2022-10-23T17:22:36.035Z,40.97
2022-10-23T17:25:05.061Z,40.30
2022-10-23T17:27:33.728Z,33.88
2022-10-23T17:30:03.824Z,35.78
2022-10-23T17:32:32.742Z,37.72
2022-10-23T17:35:01.496Z,35.78
2022-10-23T17:37:30.124Z,34.60
2022-10-23T17:40:02.560Z,35.97
2022-10-23T17:42:31.382Z,33.78
2022-10-23T17:45:00.005Z,33.08
2022-10-23T17:47:30.058Z,36.40
2022-10-23T17:49:58.714Z,36.10
2022-10-23T17:52:27.046Z,30.83
2022-10-23T17:54:55.709Z,42.28
2022-10-23T17:57:24.438Z,36.78
2022-10-23T17:59:53.177Z,36.58
2022-10-23T18:02:22.040Z,35.97
2022-10-23T18:04:51.748Z,33.58
2022-10-23T18:07:20.455Z,37.90
2022-10-23T18:09:49.258Z,35.17
2022-10-23T18:12:18.208Z,49.75
2022-10-23T18:14:46.841Z,56.55
2022-10-23T18:17:15.526Z,56.60
2022-10-23T18:19:43.897Z,58.63
2022-10-23T18:22:14.055Z,64.88
2022-10-23T18:24:42.794Z,55.13
2022-10-23T18:27:11.627Z,55.55
2022-10-23T18:29:43.500Z,59.38
2022-10-23T18:32:12.153Z,54.08
2022-10-23T18:34:40.520Z,50.65
2022-10-23T18:37:09.246Z,57.40
2022-10-23T18:39:39.363Z,65.47
2022-10-23T18:42:08.053Z,51.22
2022-10-23T18:44:37.111Z,52.88
2022-10-23T18:47:05.933Z,58.47
2022-10-23T18:49:34.323Z,62.90
2022-10-23T18:52:03.526Z,50.75
2022-10-23T18:54:32.413Z,55.08
2022-10-23T18:57:03.780Z,57.42
2022-10-23T18:59:33.522Z,59.65
2022-10-23T19:02:02.628Z,62.95
2022-10-23T19:04:32.874Z,69.38
2022-10-23T19:07:04.606Z,61.30
2022-10-23T19:09:33.350Z,69.68
2022-10-23T19:12:04.676Z,81.05
2022-10-23T19:14:33.565Z,64.40
2022-10-23T19:17:05.165Z,60.72
2022-10-23T19:19:36.124Z,60.65
2022-10-23T19:22:05.678Z,65.10
2022-10-23T19:24:39.834Z,69.03
2022-10-23T19:27:10.359Z,77.13
2022-10-23T19:29:41.765Z,74.45
2022-10-23T19:32:10.656Z,70.80
2022-10-23T19:34:39.036Z,74.47
2022-10-23T19:37:09.073Z,68.10
2022-10-23T19:39:38.573Z,76.70
2022-10-23T19:42:08.732Z,76.78
2022-10-23T19:44:38.823Z,81.03
2022-10-23T19:47:07.590Z,81.90
2022-10-23T19:49:35.977Z,66.60
2022-10-23T19:52:07.221Z,66.57
2022-10-23T19:54:36.053Z,70.95
2022-10-23T19:57:04.746Z,76.20
2022-10-23T19:59:33.436Z,73.22
2022-10-23T20:02:03.769Z,66.72
2022-10-23T20:04:32.276Z,62.92
2022-10-23T20:07:01.465Z,79.80
2022-10-23T20:09:30.737Z,69.57
2022-10-23T20:12:00.632Z,70.20
2022-10-23T20:14:29.667Z,75.47
2022-10-23T20:16:59.819Z,73.80
2022-10-23T20:19:29.899Z,69.90
2022-10-23T20:24:27.218Z,84.93
2022-10-23T20:26:57.210Z,95.28
2022-10-23T20:29:26.569Z,104.88
2022-10-23T20:31:54.891Z,95.10
2022-10-23T20:34:23.519Z,117.00
2022-10-23T20:36:53.801Z,94.38
2022-10-23T20:39:25.597Z,100.03
2022-10-23T20:41:55.338Z,112.30
2022-10-23T20:44:24.559Z,102.85
2022-10-23T20:46:53.149Z,118.90
2022-10-23T20:49:21.971Z,115.15
2022-10-23T20:51:55.207Z,107.15
2022-10-23T20:54:25.228Z,115.07
2022-10-23T20:56:54.063Z,121.90
2022-10-23T20:59:22.735Z,150.93
2022-10-23T21:01:53.305Z,147.00
2022-10-23T21:04:24.214Z,153.05
2022-10-23T21:07:09.434Z,160.60
2022-10-23T21:09:39.828Z,186.27
2022-10-23T21:12:08.954Z,151.73
2022-10-23T21:14:38.121Z,153.40
2022-10-23T21:17:08.559Z,164.60
2022-10-23T21:19:36.952Z,146.15
2022-10-23T21:22:07.209Z,219.02
2022-10-23T21:24:36.154Z,150.48
2022-10-23T21:27:04.981Z,136.35
2022-10-23T21:29:33.690Z,135.95
2022-10-23T21:32:02.444Z,118.40
2022-10-23T21:34:31.142Z,121.65
2022-10-23T21:37:12.353Z,128.55
2022-10-23T21:39:42.990Z,119.10
2022-10-23T21:42:12.442Z,122.93
2022-10-23T21:44:41.404Z,135.30
2022-10-23T21:47:10.061Z,147.00
2022-10-23T21:49:38.564Z,302.10
2022-10-23T21:52:07.247Z,516.58
2022-10-23T21:54:35.916Z,624.70
2022-10-23T21:57:06.038Z,718.65
2022-10-23T21:59:35.884Z,538.97
2022-10-23T22:02:05.311Z,560.42
2022-10-23T22:04:33.894Z,570.17
2022-10-23T22:07:04.003Z,505.48
2022-10-23T22:09:34.290Z,516.53
2022-10-23T22:12:03.158Z,360.15
2022-10-23T22:14:33.271Z,462.45
2022-10-23T22:17:01.971Z,286.85
2022-10-23T22:19:30.297Z,279.02
2022-10-23T22:21:59.038Z,239.63
2022-10-23T22:24:27.732Z,212.57
2022-10-23T22:26:57.544Z,175.88
2022-10-23T22:29:27.531Z,177.18
2022-10-23T22:31:58.327Z,179.47
2022-10-23T22:34:58.933Z,174.07
2022-10-23T22:37:17.753Z,135.90
2022-10-23T22:39:46.477Z,145.90
2022-10-23T22:42:15.196Z,153.38
2022-10-23T22:44:43.893Z,158.65
2022-10-23T22:47:14.037Z,144.13
2022-10-23T22:49:42.491Z,111.50
2022-10-23T22:52:11.177Z,124.35
2022-10-23T22:54:39.860Z,127.20
2022-10-23T22:57:08.573Z,129.98
2022-10-23T22:59:37.412Z,107.30
2022-10-23T23:02:06.130Z,107.75
2022-10-23T23:04:38.337Z,116.00
2022-10-23T23:07:08.264Z,94.63
2022-10-23T23:09:38.886Z,115.80
2022-10-23T23:12:08.378Z,128.55
2022-10-23T23:14:37.392Z,122.38
2022-10-23T23:17:06.721Z,134.90
2022-10-23T23:19:36.663Z,129.93
2022-10-23T23:22:06.050Z,196.88
2022-10-23T23:24:34.923Z,151.68
2022-10-23T23:27:03.596Z,148.60
2022-10-23T23:29:32.298Z,211.40
2022-10-23T23:32:00.972Z,163.18
2022-10-23T23:34:29.937Z,142.13
2022-10-23T23:36:59.994Z,137.68
2022-10-23T23:39:29.034Z,115.93
2022-10-23T23:41:57.754Z,100.53
2022-10-23T23:44:26.575Z,95.88
2022-10-23T23:46:54.966Z,94.88
2022-10-23T23:49:23.934Z,104.57
2022-10-23T23:51:52.770Z,102.70
2022-10-23T23:54:22.983Z,100.97
2022-10-23T23:56:51.644Z,108.47
2022-10-23T23:59:20.323Z,83.95
